sensor_id;sensor_type;location;lat;lon;timestamp;P1;durP1;ratioP1;P2;durP2;ratioP2
85703;SDS011;76141;49.082;19.306;2024-02-16T00:00:17;13.70;;;7.68;;
85703;SDS011;76141;49.082;19.306;2024-02-16T00:02:43;12.55;;;8.13;;
85703;SDS011;76141;49.082;19.306;2024-02-16T00:05:09;12.02;;;7.18;;
85703;SDS011;76141;49.082;19.306;2024-02-16T00:07:38;12.07;;;7.70;;
85703;SDS011;76141;49.082;19.306;2024-02-16T00:10:04;11.05;;;7.45;;
85703;SDS011;76141;49.082;19.306;2024-02-16T00:12:31;9.82;;;6.85;;
85703;SDS011;76141;49.082;19.306;2024-02-16T00:14:58;10.55;;;6.10;;
85703;SDS011;76141;49.082;19.306;2024-02-16T00:17:23;8.88;;;5.78;;
85703;SDS011;76141;49.082;19.306;2024-02-16T00:19:52;8.95;;;6.03;;
85703;SDS011;76141;49.082;19.306;2024-02-16T00:22:18;10.80;;;6.18;;
85703;SDS011;76141;49.082;19.306;2024-02-16T00:24:43;11.98;;;6.80;;
85703;SDS011;76141;49.082;19.306;2024-02-16T00:27:09;9.18;;;7.13;;
85703;SDS011;76141;49.082;19.306;2024-02-16T00:29:35;10.25;;;7.13;;
85703;SDS011;76141;49.082;19.306;2024-02-16T00:32:00;12.25;;;7.38;;
85703;SDS011;76141;49.082;19.306;2024-02-16T00:34:26;10.98;;;6.97;;
85703;SDS011;76141;49.082;19.306;2024-02-16T00:36:51;11.52;;;7.07;;
85703;SDS011;76141;49.082;19.306;2024-02-16T00:39:20;10.93;;;7.05;;
85703;SDS011;76141;49.082;19.306;2024-02-16T00:41:46;12.27;;;7.35;;
85703;SDS011;76141;49.082;19.306;2024-02-16T00:44:12;12.02;;;7.45;;
85703;SDS011;76141;49.082;19.306;2024-02-16T00:46:37;10.55;;;6.75;;
85703;SDS011;76141;49.082;19.306;2024-02-16T00:49:03;9.65;;;6.53;;
85703;SDS011;76141;49.082;19.306;2024-02-16T00:51:29;11.00;;;6.20;;
85703;SDS011;76141;49.082;19.306;2024-02-16T00:53:54;13.13;;;6.32;;
85703;SDS011;76141;49.082;19.306;2024-02-16T00:56:20;12.23;;;7.03;;
85703;SDS011;76141;49.082;19.306;2024-02-16T00:58:46;10.18;;;6.00;;
85703;SDS011;76141;49.082;19.306;2024-02-16T01:01:11;9.60;;;5.85;;
85703;SDS011;76141;49.082;19.306;2024-02-16T01:03:40;9.65;;;6.10;;
85703;SDS011;76141;49.082;19.306;2024-02-16T01:06:06;9.32;;;5.75;;
85703;SDS011;76141;49.082;19.306;2024-02-16T01:08:34;9.80;;;5.20;;
85703;SDS011;76141;49.082;19.306;2024-02-16T01:10:59;8.25;;;5.63;;
85703;SDS011;76141;49.082;19.306;2024-02-16T01:13:25;6.00;;;4.55;;
85703;SDS011;76141;49.082;19.306;2024-02-16T01:15:51;7.03;;;4.47;;
85703;SDS011;76141;49.082;19.306;2024-02-16T01:18:17;6.72;;;4.88;;
85703;SDS011;76141;49.082;19.306;2024-02-16T01:20:43;6.57;;;5.03;;
85703;SDS011;76141;49.082;19.306;2024-02-16T01:23:08;8.95;;;5.45;;
85703;SDS011;76141;49.082;19.306;2024-02-16T01:25:34;7.60;;;5.32;;
85703;SDS011;76141;49.082;19.306;2024-02-16T01:27:59;9.35;;;5.20;;
85703;SDS011;76141;49.082;19.306;2024-02-16T01:30:24;8.27;;;5.03;;
85703;SDS011;76141;49.082;19.306;2024-02-16T01:32:50;6.78;;;5.50;;
85703;SDS011;76141;49.082;19.306;2024-02-16T01:35:16;7.57;;;5.40;;
85703;SDS011;76141;49.082;19.306;2024-02-16T01:37:41;7.60;;;5.55;;
85703;SDS011;76141;49.082;19.306;2024-02-16T01:40:11;10.50;;;5.20;;
85703;SDS011;76141;49.082;19.306;2024-02-16T01:42:40;7.85;;;5.38;;
85703;SDS011;76141;49.082;19.306;2024-02-16T01:45:07;8.45;;;5.53;;
85703;SDS011;76141;49.082;19.306;2024-02-16T01:47:34;9.10;;;5.32;;
85703;SDS011;76141;49.082;19.306;2024-02-16T01:50:00;10.70;;;5.40;;
85703;SDS011;76141;49.082;19.306;2024-02-16T01:52:25;10.45;;;5.53;;
85703;SDS011;76141;49.082;19.306;2024-02-16T01:54:50;8.75;;;5.80;;
85703;SDS011;76141;49.082;19.306;2024-02-16T01:57:16;7.30;;;5.30;;
85703;SDS011;76141;49.082;19.306;2024-02-16T01:59:42;8.60;;;5.20;;
85703;SDS011;76141;49.082;19.306;2024-02-16T02:02:08;11.00;;;5.85;;
85703;SDS011;76141;49.082;19.306;2024-02-16T02:04:33;8.90;;;5.70;;
85703;SDS011;76141;49.082;19.306;2024-02-16T02:06:59;8.63;;;6.13;;
85703;SDS011;76141;49.082;19.306;2024-02-16T02:09:24;7.75;;;5.72;;
85703;SDS011;76141;49.082;19.306;2024-02-16T02:11:49;8.68;;;5.63;;
85703;SDS011;76141;49.082;19.306;2024-02-16T02:14:16;9.55;;;5.65;;
85703;SDS011;76141;49.082;19.306;2024-02-16T02:17:00;6.82;;;5.47;;
85703;SDS011;76141;49.082;19.306;2024-02-16T02:19:26;9.55;;;5.63;;
85703;SDS011;76141;49.082;19.306;2024-02-16T02:21:52;7.43;;;5.55;;
85703;SDS011;76141;49.082;19.306;2024-02-16T02:24:17;10.38;;;5.40;;
85703;SDS011;76141;49.082;19.306;2024-02-16T02:26:44;8.52;;;5.65;;
85703;SDS011;76141;49.082;19.306;2024-02-16T02:29:10;8.57;;;5.47;;
85703;SDS011;76141;49.082;19.306;2024-02-16T02:31:36;6.85;;;5.22;;
85703;SDS011;76141;49.082;19.306;2024-02-16T02:34:01;7.13;;;5.20;;
85703;SDS011;76141;49.082;19.306;2024-02-16T02:36:26;6.93;;;5.32;;
85703;SDS011;76141;49.082;19.306;2024-02-16T02:38:52;7.55;;;5.05;;
85703;SDS011;76141;49.082;19.306;2024-02-16T02:41:17;7.93;;;4.82;;
85703;SDS011;76141;49.082;19.306;2024-02-16T02:43:44;9.00;;;5.90;;
85703;SDS011;76141;49.082;19.306;2024-02-16T02:46:14;12.73;;;5.60;;
85703;SDS011;76141;49.082;19.306;2024-02-16T02:48:41;8.85;;;5.50;;
85703;SDS011;76141;49.082;19.306;2024-02-16T02:51:08;9.77;;;6.05;;
85703;SDS011;76141;49.082;19.306;2024-02-16T02:53:34;10.57;;;5.43;;
85703;SDS011;76141;49.082;19.306;2024-02-16T02:56:01;11.38;;;5.40;;
85703;SDS011;76141;49.082;19.306;2024-02-16T02:58:27;11.38;;;6.07;;
85703;SDS011;76141;49.082;19.306;2024-02-16T03:00:53;9.25;;;5.70;;
85703;SDS011;76141;49.082;19.306;2024-02-16T03:03:20;7.88;;;4.97;;
85703;SDS011;76141;49.082;19.306;2024-02-16T03:05:46;7.13;;;4.57;;
85703;SDS011;76141;49.082;19.306;2024-02-16T03:08:12;8.43;;;4.57;;
85703;SDS011;76141;49.082;19.306;2024-02-16T03:10:37;5.90;;;4.72;;
85703;SDS011;76141;49.082;19.306;2024-02-16T03:13:04;7.63;;;4.78;;
85703;SDS011;76141;49.082;19.306;2024-02-16T03:15:32;7.88;;;4.90;;
85703;SDS011;76141;49.082;19.306;2024-02-16T03:17:58;8.82;;;5.30;;
85703;SDS011;76141;49.082;19.306;2024-02-16T03:20:24;9.02;;;5.00;;
85703;SDS011;76141;49.082;19.306;2024-02-16T03:22:49;9.05;;;4.70;;
85703;SDS011;76141;49.082;19.306;2024-02-16T03:25:14;7.65;;;4.28;;
85703;SDS011;76141;49.082;19.306;2024-02-16T03:27:40;12.45;;;4.88;;
85703;SDS011;76141;49.082;19.306;2024-02-16T03:30:07;8.48;;;4.88;;
85703;SDS011;76141;49.082;19.306;2024-02-16T03:32:33;10.35;;;5.30;;
85703;SDS011;76141;49.082;19.306;2024-02-16T03:34:59;8.82;;;4.80;;
85703;SDS011;76141;49.082;19.306;2024-02-16T03:37:25;8.02;;;4.68;;
85703;SDS011;76141;49.082;19.306;2024-02-16T03:39:50;8.65;;;5.00;;
85703;SDS011;76141;49.082;19.306;2024-02-16T03:42:16;6.88;;;4.82;;
85703;SDS011;76141;49.082;19.306;2024-02-16T03:44:45;7.45;;;5.10;;
85703;SDS011;76141;49.082;19.306;2024-02-16T03:47:10;7.28;;;5.35;;
85703;SDS011;76141;49.082;19.306;2024-02-16T03:49:37;8.90;;;5.25;;
85703;SDS011;76141;49.082;19.306;2024-02-16T03:52:02;8.10;;;5.65;;
85703;SDS011;76141;49.082;19.306;2024-02-16T03:54:28;7.28;;;5.43;;
85703;SDS011;76141;49.082;19.306;2024-02-16T03:56:54;9.40;;;5.50;;
85703;SDS011;76141;49.082;19.306;2024-02-16T03:59:20;9.23;;;4.97;;
85703;SDS011;76141;49.082;19.306;2024-02-16T04:01:45;10.27;;;5.50;;
85703;SDS011;76141;49.082;19.306;2024-02-16T04:04:11;9.02;;;5.65;;
85703;SDS011;76141;49.082;19.306;2024-02-16T04:06:37;9.45;;;5.68;;
85703;SDS011;76141;49.082;19.306;2024-02-16T04:09:03;8.20;;;5.20;;
85703;SDS011;76141;49.082;19.306;2024-02-16T04:11:31;13.43;;;6.18;;
85703;SDS011;76141;49.082;19.306;2024-02-16T04:13:57;10.32;;;5.60;;
85703;SDS011;76141;49.082;19.306;2024-02-16T04:16:23;9.35;;;5.28;;
85703;SDS011;76141;49.082;19.306;2024-02-16T04:18:50;8.70;;;6.00;;
85703;SDS011;76141;49.082;19.306;2024-02-16T04:21:15;6.82;;;5.35;;
85703;SDS011;76141;49.082;19.306;2024-02-16T04:23:42;9.10;;;5.50;;
85703;SDS011;76141;49.082;19.306;2024-02-16T04:26:07;13.23;;;6.00;;
85703;SDS011;76141;49.082;19.306;2024-02-16T04:28:33;10.10;;;5.97;;
85703;SDS011;76141;49.082;19.306;2024-02-16T04:31:02;8.88;;;5.78;;
85703;SDS011;76141;49.082;19.306;2024-02-16T04:33:27;8.77;;;5.50;;
85703;SDS011;76141;49.082;19.306;2024-02-16T04:35:53;9.35;;;6.00;;
85703;SDS011;76141;49.082;19.306;2024-02-16T04:38:19;8.90;;;5.32;;
85703;SDS011;76141;49.082;19.306;2024-02-16T04:40:45;8.52;;;4.78;;
85703;SDS011;76141;49.082;19.306;2024-02-16T04:43:10;7.28;;;4.40;;
85703;SDS011;76141;49.082;19.306;2024-02-16T04:45:36;8.63;;;4.60;;
85703;SDS011;76141;49.082;19.306;2024-02-16T04:48:02;8.70;;;4.70;;
85703;SDS011;76141;49.082;19.306;2024-02-16T04:50:29;8.02;;;4.70;;
85703;SDS011;76141;49.082;19.306;2024-02-16T04:52:54;7.47;;;4.95;;
85703;SDS011;76141;49.082;19.306;2024-02-16T04:55:19;7.55;;;4.03;;
85703;SDS011;76141;49.082;19.306;2024-02-16T04:57:45;6.22;;;4.45;;
85703;SDS011;76141;49.082;19.306;2024-02-16T05:00:11;7.00;;;4.80;;
85703;SDS011;76141;49.082;19.306;2024-02-16T05:02:37;7.00;;;4.63;;
85703;SDS011;76141;49.082;19.306;2024-02-16T05:05:02;6.47;;;4.60;;
85703;SDS011;76141;49.082;19.306;2024-02-16T05:07:28;8.43;;;4.97;;
85703;SDS011;76141;49.082;19.306;2024-02-16T05:09:56;7.05;;;5.03;;
85703;SDS011;76141;49.082;19.306;2024-02-16T05:12:23;7.30;;;4.93;;
85703;SDS011;76141;49.082;19.306;2024-02-16T05:14:49;6.78;;;4.75;;
85703;SDS011;76141;49.082;19.306;2024-02-16T05:17:15;9.70;;;4.68;;
85703;SDS011;76141;49.082;19.306;2024-02-16T05:19:41;8.40;;;4.93;;
85703;SDS011;76141;49.082;19.306;2024-02-16T05:22:06;9.38;;;5.30;;
85703;SDS011;76141;49.082;19.306;2024-02-16T05:24:32;7.50;;;5.03;;
85703;SDS011;76141;49.082;19.306;2024-02-16T05:26:58;7.70;;;5.00;;
85703;SDS011;76141;49.082;19.306;2024-02-16T05:29:24;8.90;;;5.20;;
85703;SDS011;76141;49.082;19.306;2024-02-16T05:31:53;7.75;;;5.07;;
85703;SDS011;76141;49.082;19.306;2024-02-16T05:34:18;10.73;;;5.28;;
85703;SDS011;76141;49.082;19.306;2024-02-16T05:36:44;8.82;;;5.22;;
85703;SDS011;76141;49.082;19.306;2024-02-16T05:39:10;9.77;;;5.15;;
85703;SDS011;76141;49.082;19.306;2024-02-16T05:41:48;11.68;;;4.97;;
85703;SDS011;76141;49.082;19.306;2024-02-16T05:44:14;9.40;;;5.68;;
85703;SDS011;76141;49.082;19.306;2024-02-16T05:46:39;10.57;;;5.60;;
85703;SDS011;76141;49.082;19.306;2024-02-16T05:49:05;8.13;;;5.70;;
85703;SDS011;76141;49.082;19.306;2024-02-16T05:51:34;13.02;;;7.97;;
85703;SDS011;76141;49.082;19.306;2024-02-16T05:54:01;11.85;;;8.73;;
85703;SDS011;76141;49.082;19.306;2024-02-16T05:56:27;25.52;;;10.10;;
85703;SDS011;76141;49.082;19.306;2024-02-16T05:58:53;20.17;;;9.73;;
85703;SDS011;76141;49.082;19.306;2024-02-16T06:01:18;23.77;;;10.60;;
85703;SDS011;76141;49.082;19.306;2024-02-16T06:03:44;24.25;;;10.82;;
85703;SDS011;76141;49.082;19.306;2024-02-16T06:06:10;20.10;;;10.85;;
85703;SDS011;76141;49.082;19.306;2024-02-16T06:08:35;22.67;;;10.68;;
85703;SDS011;76141;49.082;19.306;2024-02-16T06:11:01;18.75;;;10.00;;
85703;SDS011;76141;49.082;19.306;2024-02-16T06:13:27;23.17;;;10.63;;
85703;SDS011;76141;49.082;19.306;2024-02-16T06:15:54;19.85;;;9.68;;
85703;SDS011;76141;49.082;19.306;2024-02-16T06:18:20;26.77;;;10.55;;
85703;SDS011;76141;49.082;19.306;2024-02-16T06:20:46;21.38;;;11.10;;
85703;SDS011;76141;49.082;19.306;2024-02-16T06:23:12;21.52;;;10.93;;
85703;SDS011;76141;49.082;19.306;2024-02-16T06:25:37;21.70;;;10.77;;
85703;SDS011;76141;49.082;19.306;2024-02-16T06:28:03;24.60;;;11.45;;
85703;SDS011;76141;49.082;19.306;2024-02-16T06:30:29;18.58;;;11.13;;
85703;SDS011;76141;49.082;19.306;2024-02-16T06:32:55;18.42;;;10.25;;
85703;SDS011;76141;49.082;19.306;2024-02-16T06:35:22;19.35;;;10.40;;
85703;SDS011;76141;49.082;19.306;2024-02-16T06:37:48;19.60;;;10.13;;
85703;SDS011;76141;49.082;19.306;2024-02-16T06:40:13;21.35;;;11.45;;
85703;SDS011;76141;49.082;19.306;2024-02-16T06:42:39;21.83;;;11.13;;
85703;SDS011;76141;49.082;19.306;2024-02-16T06:45:05;30.00;;;12.95;;
85703;SDS011;76141;49.082;19.306;2024-02-16T06:47:31;23.98;;;11.68;;
85703;SDS011;76141;49.082;19.306;2024-02-16T06:49:57;18.77;;;11.02;;
85703;SDS011;76141;49.082;19.306;2024-02-16T06:52:22;16.00;;;7.82;;
85703;SDS011;76141;49.082;19.306;2024-02-16T06:54:47;13.27;;;6.82;;
85703;SDS011;76141;49.082;19.306;2024-02-16T06:57:15;10.65;;;6.13;;
85703;SDS011;76141;49.082;19.306;2024-02-16T06:59:41;9.20;;;5.53;;
85703;SDS011;76141;49.082;19.306;2024-02-16T07:02:07;13.13;;;5.70;;
85703;SDS011;76141;49.082;19.306;2024-02-16T07:04:34;9.25;;;5.32;;
85703;SDS011;76141;49.082;19.306;2024-02-16T07:07:00;9.07;;;5.28;;
85703;SDS011;76141;49.082;19.306;2024-02-16T07:09:25;12.00;;;5.30;;
85703;SDS011;76141;49.082;19.306;2024-02-16T07:11:51;10.65;;;7.13;;
85703;SDS011;76141;49.082;19.306;2024-02-16T07:14:17;20.65;;;11.30;;
85703;SDS011;76141;49.082;19.306;2024-02-16T07:16:43;24.73;;;13.07;;
85703;SDS011;76141;49.082;19.306;2024-02-16T07:19:09;31.23;;;14.30;;
85703;SDS011;76141;49.082;19.306;2024-02-16T07:21:34;35.35;;;14.43;;
85703;SDS011;76141;49.082;19.306;2024-02-16T07:24:00;32.67;;;13.32;;
85703;SDS011;76141;49.082;19.306;2024-02-16T07:26:26;28.75;;;12.40;;
85703;SDS011;76141;49.082;19.306;2024-02-16T07:28:52;37.97;;;12.30;;
85703;SDS011;76141;49.082;19.306;2024-02-16T07:31:17;28.27;;;11.45;;
85703;SDS011;76141;49.082;19.306;2024-02-16T07:33:43;31.55;;;11.63;;
85703;SDS011;76141;49.082;19.306;2024-02-16T07:36:08;25.88;;;10.75;;
85703;SDS011;76141;49.082;19.306;2024-02-16T07:38:34;29.75;;;11.27;;
85703;SDS011;76141;49.082;19.306;2024-02-16T07:41:00;21.08;;;10.15;;
85703;SDS011;76141;49.082;19.306;2024-02-16T07:43:27;23.80;;;10.40;;
85703;SDS011;76141;49.082;19.306;2024-02-16T07:45:53;22.90;;;9.50;;
85703;SDS011;76141;49.082;19.306;2024-02-16T07:48:19;22.30;;;9.68;;
85703;SDS011;76141;49.082;19.306;2024-02-16T07:50:46;24.23;;;9.23;;
85703;SDS011;76141;49.082;19.306;2024-02-16T07:53:12;16.00;;;7.18;;
85703;SDS011;76141;49.082;19.306;2024-02-16T07:55:38;22.40;;;9.15;;
85703;SDS011;76141;49.082;19.306;2024-02-16T07:58:03;25.95;;;8.73;;
85703;SDS011;76141;49.082;19.306;2024-02-16T08:00:29;15.75;;;6.35;;
85703;SDS011;76141;49.082;19.306;2024-02-16T08:02:54;11.07;;;6.00;;
85703;SDS011;76141;49.082;19.306;2024-02-16T08:05:20;12.93;;;5.47;;
85703;SDS011;76141;49.082;19.306;2024-02-16T08:07:47;10.02;;;5.32;;
85703;SDS011;76141;49.082;19.306;2024-02-16T08:10:12;21.27;;;5.63;;
85703;SDS011;76141;49.082;19.306;2024-02-16T08:12:38;13.63;;;5.70;;
85703;SDS011;76141;49.082;19.306;2024-02-16T08:15:04;14.70;;;5.03;;
85703;SDS011;76141;49.082;19.306;2024-02-16T08:17:37;22.58;;;5.32;;
85703;SDS011;76141;49.082;19.306;2024-02-16T08:20:02;13.02;;;5.00;;
85703;SDS011;76141;49.082;19.306;2024-02-16T08:22:28;17.02;;;5.30;;
85703;SDS011;76141;49.082;19.306;2024-02-16T08:24:54;11.40;;;5.43;;
85703;SDS011;76141;49.082;19.306;2024-02-16T08:27:19;11.85;;;5.65;;
85703;SDS011;76141;49.082;19.306;2024-02-16T08:29:45;12.45;;;4.93;;
85703;SDS011;76141;49.082;19.306;2024-02-16T08:32:11;13.48;;;5.22;;
85703;SDS011;76141;49.082;19.306;2024-02-16T08:34:37;17.30;;;5.13;;
85703;SDS011;76141;49.082;19.306;2024-02-16T08:37:03;13.18;;;6.20;;
85703;SDS011;76141;49.082;19.306;2024-02-16T08:39:29;14.38;;;5.35;;
85703;SDS011;76141;49.082;19.306;2024-02-16T08:41:55;13.93;;;5.30;;
85703;SDS011;76141;49.082;19.306;2024-02-16T08:44:21;13.60;;;5.03;;
85703;SDS011;76141;49.082;19.306;2024-02-16T08:46:46;13.93;;;5.45;;
85703;SDS011;76141;49.082;19.306;2024-02-16T08:49:13;12.80;;;5.85;;
85703;SDS011;76141;49.082;19.306;2024-02-16T08:51:39;11.50;;;5.50;;
85703;SDS011;76141;49.082;19.306;2024-02-16T08:54:04;11.93;;;6.00;;
85703;SDS011;76141;49.082;19.306;2024-02-16T08:56:30;10.30;;;4.75;;
85703;SDS011;76141;49.082;19.306;2024-02-16T08:58:56;13.50;;;5.90;;
85703;SDS011;76141;49.082;19.306;2024-02-16T09:01:31;19.20;;;6.50;;
85703;SDS011;76141;49.082;19.306;2024-02-16T09:04:01;14.48;;;6.95;;
85703;SDS011;76141;49.082;19.306;2024-02-16T09:06:27;18.25;;;7.00;;
85703;SDS011;76141;49.082;19.306;2024-02-16T09:08:53;11.85;;;5.68;;
85703;SDS011;76141;49.082;19.306;2024-02-16T09:11:18;10.75;;;4.57;;
85703;SDS011;76141;49.082;19.306;2024-02-16T09:13:44;12.90;;;4.57;;
85703;SDS011;76141;49.082;19.306;2024-02-16T09:16:09;8.70;;;4.30;;
85703;SDS011;76141;49.082;19.306;2024-02-16T09:18:35;7.60;;;4.35;;
85703;SDS011;76141;49.082;19.306;2024-02-16T09:21:04;9.07;;;3.92;;
85703;SDS011;76141;49.082;19.306;2024-02-16T09:23:33;9.88;;;4.45;;
85703;SDS011;76141;49.082;19.306;2024-02-16T09:25:59;8.98;;;5.68;;
85703;SDS011;76141;49.082;19.306;2024-02-16T09:28:25;10.80;;;6.50;;
85703;SDS011;76141;49.082;19.306;2024-02-16T09:30:51;10.70;;;5.70;;
85703;SDS011;76141;49.082;19.306;2024-02-16T09:33:17;9.77;;;3.97;;
85703;SDS011;76141;49.082;19.306;2024-02-16T09:35:42;8.85;;;3.70;;
85703;SDS011;76141;49.082;19.306;2024-02-16T09:38:08;15.52;;;6.10;;
85703;SDS011;76141;49.082;19.306;2024-02-16T09:40:36;4.53;;;3.70;;
85703;SDS011;76141;49.082;19.306;2024-02-16T09:43:02;4.68;;;3.08;;
85703;SDS011;76141;49.082;19.306;2024-02-16T09:45:28;2.92;;;1.80;;
85703;SDS011;76141;49.082;19.306;2024-02-16T09:47:54;7.18;;;2.38;;
85703;SDS011;76141;49.082;19.306;2024-02-16T09:50:20;6.47;;;2.70;;
85703;SDS011;76141;49.082;19.306;2024-02-16T09:52:49;3.78;;;1.77;;
85703;SDS011;76141;49.082;19.306;2024-02-16T09:55:16;6.47;;;2.25;;
85703;SDS011;76141;49.082;19.306;2024-02-16T09:57:42;4.03;;;2.97;;
85703;SDS011;76141;49.082;19.306;2024-02-16T10:00:09;3.58;;;2.25;;
85703;SDS011;76141;49.082;19.306;2024-02-16T10:05:16;2.88;;;1.52;;
85703;SDS011;76141;49.082;19.306;2024-02-16T10:07:44;4.88;;;1.63;;
85703;SDS011;76141;49.082;19.306;2024-02-16T10:12:47;5.88;;;2.30;;
85703;SDS011;76141;49.082;19.306;2024-02-16T10:15:20;2.53;;;1.40;;
85703;SDS011;76141;49.082;19.306;2024-02-16T10:18:03;4.32;;;1.50;;
85703;SDS011;76141;49.082;19.306;2024-02-16T10:20:29;3.97;;;1.60;;
85703;SDS011;76141;49.082;19.306;2024-02-16T10:23:08;1.75;;;1.13;;
85703;SDS011;76141;49.082;19.306;2024-02-16T10:25:35;3.65;;;1.60;;
85703;SDS011;76141;49.082;19.306;2024-02-16T10:28:05;4.32;;;1.50;;
85703;SDS011;76141;49.082;19.306;2024-02-16T10:30:34;2.65;;;1.40;;
85703;SDS011;76141;49.082;19.306;2024-02-16T10:33:07;4.38;;;1.30;;
85703;SDS011;76141;49.082;19.306;2024-02-16T10:35:36;2.33;;;1.30;;
85703;SDS011;76141;49.082;19.306;2024-02-16T10:38:02;5.20;;;1.50;;
85703;SDS011;76141;49.082;19.306;2024-02-16T10:40:38;3.40;;;1.60;;
85703;SDS011;76141;49.082;19.306;2024-02-16T10:43:04;2.80;;;1.48;;
85703;SDS011;76141;49.082;19.306;2024-02-16T10:45:34;6.13;;;1.60;;
85703;SDS011;76141;49.082;19.306;2024-02-16T10:48:05;3.22;;;2.05;;
85703;SDS011;76141;49.082;19.306;2024-02-16T10:50:33;2.58;;;1.63;;
85703;SDS011;76141;49.082;19.306;2024-02-16T10:53:04;3.40;;;1.50;;
85703;SDS011;76141;49.082;19.306;2024-02-16T10:55:35;4.82;;;1.63;;
85703;SDS011;76141;49.082;19.306;2024-02-16T10:58:00;3.28;;;2.00;;
85703;SDS011;76141;49.082;19.306;2024-02-16T11:00:26;4.55;;;1.80;;
85703;SDS011;76141;49.082;19.306;2024-02-16T11:02:55;3.63;;;1.60;;
85703;SDS011;76141;49.082;19.306;2024-02-16T11:05:36;6.38;;;1.75;;
85703;SDS011;76141;49.082;19.306;2024-02-16T11:08:16;3.72;;;1.60;;
85703;SDS011;76141;49.082;19.306;2024-02-16T11:13:24;3.78;;;1.88;;
85703;SDS011;76141;49.082;19.306;2024-02-16T11:16:03;3.42;;;1.85;;
85703;SDS011;76141;49.082;19.306;2024-02-16T11:18:32;6.53;;;1.70;;
85703;SDS011;76141;49.082;19.306;2024-02-16T11:23:29;3.25;;;1.60;;
85703;SDS011;76141;49.082;19.306;2024-02-16T11:26:05;4.80;;;1.70;;
85703;SDS011;76141;49.082;19.306;2024-02-16T11:28:37;3.92;;;1.52;;
85703;SDS011;76141;49.082;19.306;2024-02-16T11:31:04;3.10;;;1.48;;
85703;SDS011;76141;49.082;19.306;2024-02-16T11:33:30;6.45;;;2.00;;
85703;SDS011;76141;49.082;19.306;2024-02-16T11:35:56;1.60;;;1.50;;
85703;SDS011;76141;49.082;19.306;2024-02-16T11:38:23;3.25;;;1.58;;
85703;SDS011;76141;49.082;19.306;2024-02-16T11:40:59;2.75;;;1.40;;
85703;SDS011;76141;49.082;19.306;2024-02-16T11:43:26;3.55;;;1.60;;
85703;SDS011;76141;49.082;19.306;2024-02-16T11:45:52;3.72;;;2.00;;
85703;SDS011;76141;49.082;19.306;2024-02-16T11:48:21;5.68;;;2.17;;
85703;SDS011;76141;49.082;19.306;2024-02-16T11:50:49;4.93;;;1.88;;
85703;SDS011;76141;49.082;19.306;2024-02-16T11:53:16;2.97;;;2.08;;
85703;SDS011;76141;49.082;19.306;2024-02-16T11:55:49;4.60;;;2.03;;
85703;SDS011;76141;49.082;19.306;2024-02-16T11:58:18;3.60;;;2.50;;
85703;SDS011;76141;49.082;19.306;2024-02-16T12:00:45;6.05;;;1.77;;
85703;SDS011;76141;49.082;19.306;2024-02-16T12:05:57;3.17;;;1.70;;
85703;SDS011;76141;49.082;19.306;2024-02-16T12:08:23;5.22;;;1.70;;
85703;SDS011;76141;49.082;19.306;2024-02-16T12:10:49;6.68;;;2.10;;
85703;SDS011;76141;49.082;19.306;2024-02-16T12:13:16;3.58;;;1.63;;
85703;SDS011;76141;49.082;19.306;2024-02-16T12:15:49;3.05;;;1.85;;
85703;SDS011;76141;49.082;19.306;2024-02-16T12:20:45;3.13;;;1.88;;
85703;SDS011;76141;49.082;19.306;2024-02-16T12:23:13;6.55;;;1.80;;
85703;SDS011;76141;49.082;19.306;2024-02-16T12:25:39;2.70;;;1.77;;
85703;SDS011;76141;49.082;19.306;2024-02-16T12:28:05;3.67;;;1.80;;
85703;SDS011;76141;49.082;19.306;2024-02-16T12:30:31;4.28;;;2.03;;
85703;SDS011;76141;49.082;19.306;2024-02-16T12:32:56;3.80;;;1.73;;
85703;SDS011;76141;49.082;19.306;2024-02-16T12:35:21;2.28;;;1.70;;
85703;SDS011;76141;49.082;19.306;2024-02-16T12:37:47;3.70;;;1.88;;
85703;SDS011;76141;49.082;19.306;2024-02-16T12:40:12;5.10;;;2.03;;
85703;SDS011;76141;49.082;19.306;2024-02-16T12:42:38;4.18;;;2.20;;
85703;SDS011;76141;49.082;19.306;2024-02-16T12:45:03;5.18;;;2.22;;
85703;SDS011;76141;49.082;19.306;2024-02-16T12:47:29;5.43;;;2.95;;
85703;SDS011;76141;49.082;19.306;2024-02-16T12:49:55;5.00;;;1.92;;
85703;SDS011;76141;49.082;19.306;2024-02-16T12:52:22;4.10;;;2.20;;
85703;SDS011;76141;49.082;19.306;2024-02-16T12:54:48;5.57;;;1.85;;
85703;SDS011;76141;49.082;19.306;2024-02-16T12:57:14;2.55;;;2.10;;
85703;SDS011;76141;49.082;19.306;2024-02-16T12:59:39;3.88;;;2.25;;
85703;SDS011;76141;49.082;19.306;2024-02-16T13:02:04;3.40;;;1.73;;
85703;SDS011;76141;49.082;19.306;2024-02-16T13:04:30;3.75;;;1.83;;
85703;SDS011;76141;49.082;19.306;2024-02-16T13:06:57;7.30;;;1.90;;
85703;SDS011;76141;49.082;19.306;2024-02-16T13:09:23;4.97;;;2.15;;
85703;SDS011;76141;49.082;19.306;2024-02-16T13:11:48;2.97;;;1.80;;
85703;SDS011;76141;49.082;19.306;2024-02-16T13:14:19;2.10;;;1.77;;
85703;SDS011;76141;49.082;19.306;2024-02-16T13:16:45;3.25;;;1.92;;
85703;SDS011;76141;49.082;19.306;2024-02-16T13:19:11;4.82;;;2.03;;
85703;SDS011;76141;49.082;19.306;2024-02-16T13:21:36;3.10;;;1.77;;
85703;SDS011;76141;49.082;19.306;2024-02-16T13:24:02;2.58;;;1.90;;
85703;SDS011;76141;49.082;19.306;2024-02-16T13:26:28;4.03;;;1.95;;
85703;SDS011;76141;49.082;19.306;2024-02-16T13:28:53;2.67;;;2.25;;
85703;SDS011;76141;49.082;19.306;2024-02-16T13:31:20;3.75;;;2.05;;
85703;SDS011;76141;49.082;19.306;2024-02-16T13:33:46;4.47;;;1.73;;
85703;SDS011;76141;49.082;19.306;2024-02-16T13:36:11;2.78;;;1.98;;
85703;SDS011;76141;49.082;19.306;2024-02-16T13:38:37;3.92;;;1.80;;
85703;SDS011;76141;49.082;19.306;2024-02-16T13:41:02;3.03;;;1.85;;
85703;SDS011;76141;49.082;19.306;2024-02-16T13:43:30;4.60;;;2.10;;
85703;SDS011;76141;49.082;19.306;2024-02-16T13:45:55;4.18;;;2.28;;
85703;SDS011;76141;49.082;19.306;2024-02-16T13:48:23;3.22;;;1.90;;
85703;SDS011;76141;49.082;19.306;2024-02-16T13:50:49;2.40;;;1.73;;
85703;SDS011;76141;49.082;19.306;2024-02-16T13:53:15;2.90;;;1.92;;
85703;SDS011;76141;49.082;19.306;2024-02-16T13:55:41;5.00;;;1.90;;
85703;SDS011;76141;49.082;19.306;2024-02-16T13:58:08;4.28;;;2.00;;
85703;SDS011;76141;49.082;19.306;2024-02-16T14:00:34;3.28;;;2.05;;
85703;SDS011;76141;49.082;19.306;2024-02-16T14:03:00;3.50;;;2.25;;
85703;SDS011;76141;49.082;19.306;2024-02-16T14:05:25;7.35;;;2.60;;
85703;SDS011;76141;49.082;19.306;2024-02-16T14:07:51;5.88;;;2.13;;
85703;SDS011;76141;49.082;19.306;2024-02-16T14:10:17;2.67;;;1.70;;
85703;SDS011;76141;49.082;19.306;2024-02-16T14:12:44;4.07;;;2.22;;
85703;SDS011;76141;49.082;19.306;2024-02-16T14:15:10;3.67;;;2.20;;
85703;SDS011;76141;49.082;19.306;2024-02-16T14:17:40;4.10;;;2.13;;
85703;SDS011;76141;49.082;19.306;2024-02-16T14:20:07;3.20;;;2.13;;
85703;SDS011;76141;49.082;19.306;2024-02-16T14:22:32;3.25;;;1.85;;
85703;SDS011;76141;49.082;19.306;2024-02-16T14:24:59;5.13;;;2.35;;
85703;SDS011;76141;49.082;19.306;2024-02-16T14:27:24;4.43;;;2.10;;
85703;SDS011;76141;49.082;19.306;2024-02-16T14:29:50;3.03;;;2.10;;
85703;SDS011;76141;49.082;19.306;2024-02-16T14:32:16;2.05;;;1.85;;
85703;SDS011;76141;49.082;19.306;2024-02-16T14:34:42;4.35;;;2.13;;
85703;SDS011;76141;49.082;19.306;2024-02-16T14:37:08;4.38;;;1.77;;
85703;SDS011;76141;49.082;19.306;2024-02-16T14:39:34;2.70;;;1.80;;